Time;durP1;ratioP1;P1;durP2;ratioP2;P2;SDS_P1;SDS_P2;PMS_P1;PMS_P2;Temp;Humidity;BMP_temperature;BMP_pressure;BME280_temperature;BME280_humidity;BME280_pressure;Samples;Min_cycle;Max_cycle;Signal;HPM_P1;HPM_P2
2024/01/01 00:00:08;;;;;;;11.57;10.37;;;9.40;99.90;;;;;;5086346;28;20741;-75
2024/01/01 00:02:34;;;;;;;1.35;1.35;;;9.40;99.90;;;;;;5085098;28;20558;-75
2024/01/01 00:04:59;;;;;;;6.13;3.83;;;9.40;99.90;;;;;;5102670;27;20226;-76
2024/01/01 00:07:28;;;;;;;0.30;0.20;;;9.40;99.90;;;;;;5085312;28;20180;-74
2024/01/01 00:09:53;;;;;;;0.40;0.40;;;9.50;99.90;;;;;;5085927;28;20207;-77
2024/01/01 00:12:19;;;;;;;0.30;0.30;;;9.50;99.90;;;;;;5079340;28;20791;-78
2024/01/01 00:14:45;;;;;;;0.30;0.20;;;9.40;99.90;;;;;;5078419;28;20197;-78
2024/01/01 00:17:11;;;;;;;0.30;0.20;;;9.50;99.90;;;;;;5087139;28;20838;-78
2024/01/01 00:19:36;;;;;;;0.30;0.20;;;9.50;99.90;;;;;;5089627;28;20204;-75
2024/01/01 00:22:02;;;;;;;0.60;0.60;;;9.50;99.90;;;;;;5089046;28;20412;-74
2024/01/01 00:24:29;;;;;;;1.92;1.85;;;9.50;99.90;;;;;;5088664;28;20275;-75
2024/01/01 00:26:55;;;;;;;4.00;2.97;;;9.40;99.90;;;;;;5087485;28;20176;-78
2024/01/01 00:29:20;;;;;;;0.63;0.63;;;9.40;99.90;;;;;;5088428;28;20201;-80
2024/01/01 00:31:46;;;;;;;0.30;0.20;;;9.40;99.90;;;;;;5088405;28;20740;-79
2024/01/01 00:34:12;;;;;;;1.30;1.27;;;9.40;99.90;;;;;;5089468;28;20200;-75
2024/01/01 00:36:37;;;;;;;0.40;0.40;;;9.30;99.90;;;;;;5089647;28;20247;-74
2024/01/01 00:39:03;;;;;;;0.30;0.20;;;9.30;99.90;;;;;;5088240;28;20196;-75
2024/01/01 00:41:29;;;;;;;0.30;0.20;;;9.30;99.90;;;;;;5088131;28;20176;-74
2024/01/01 00:43:57;;;;;;;0.30;0.20;;;9.30;99.90;;;;;;5087897;28;20212;-75
2024/01/01 00:46:23;;;;;;;0.30;0.20;;;9.20;99.90;;;;;;5087642;28;20859;-80
2024/01/01 00:48:49;;;;;;;0.40;0.40;;;9.20;99.90;;;;;;5087229;28;20287;-76
2024/01/01 00:51:14;;;;;;;0.30;0.20;;;9.30;99.90;;;;;;5082914;28;20617;-74
2024/01/01 00:53:40;;;;;;;0.40;0.20;;;9.30;99.90;;;;;;5087444;28;20279;-78
2024/01/01 00:56:07;;;;;;;0.37;0.37;;;9.30;99.90;;;;;;5087013;28;20704;-79
2024/01/01 00:58:32;;;;;;;27.70;26.20;;;9.20;99.90;;;;;;5087627;28;20197;-79
2024/01/01 01:00:58;;;;;;;0.80;0.80;;;9.20;99.90;;;;;;5086720;28;20520;-75
2024/01/01 01:03:24;;;;;;;1.40;1.40;;;9.20;99.90;;;;;;5087349;28;20433;-77
2024/01/01 01:05:50;;;;;;;0.30;0.20;;;9.20;99.90;;;;;;5086854;28;20216;-77
2024/01/01 01:08:15;;;;;;;3.17;2.93;;;9.20;99.90;;;;;;5086729;28;20196;-77
2024/01/01 01:10:41;;;;;;;0.30;0.20;;;9.20;99.90;;;;;;5069402;28;20177;-78
2024/01/01 01:13:07;;;;;;;1.57;1.57;;;9.20;99.90;;;;;;5078063;28;20208;-76
2024/01/01 01:15:34;;;;;;;0.30;0.20;;;9.20;99.90;;;;;;5080817;28;20237;-78
2024/01/01 01:17:59;;;;;;;0.30;0.30;;;9.20;99.90;;;;;;5070154;28;20902;-77
2024/01/01 01:20:25;;;;;;;15.20;13.27;;;9.20;99.90;;;;;;5067622;28;20181;-78
2024/01/01 01:22:51;;;;;;;0.37;0.33;;;9.20;99.90;;;;;;5068317;28;20201;-77
2024/01/01 01:25:18;;;;;;;0.30;0.20;;;9.20;99.90;;;;;;5067802;28;20234;-79
2024/01/01 01:27:43;;;;;;;0.30;0.20;;;9.20;99.90;;;;;;5086259;28;20680;-77
2024/01/01 01:30:10;;;;;;;0.50;0.50;;;9.10;99.90;;;;;;5088706;28;20247;-77
2024/01/01 01:32:35;;;;;;;0.30;0.20;;;9.10;99.90;;;;;;5085120;28;20444;-75
2024/01/01 01:35:01;;;;;;;34.57;13.67;;;9.00;99.90;;;;;;5088762;28;20251;-78
2024/01/01 01:37:27;;;;;;;0.30;0.20;;;9.00;99.90;;;;;;5088194;28;20740;-78
2024/01/01 01:39:52;;;;;;;1.50;1.40;;;9.00;99.90;;;;;;5093213;28;20548;-78
2024/01/01 01:42:18;;;;;;;0.30;0.20;;;9.00;99.90;;;;;;5093176;28;20261;-74
2024/01/01 01:44:43;;;;;;;0.40;0.30;;;8.90;99.90;;;;;;5093156;28;20189;-75
2024/01/01 01:47:11;;;;;;;0.30;0.20;;;8.90;99.90;;;;;;5091006;28;20730;-74
2024/01/01 01:49:36;;;;;;;0.30;0.20;;;8.90;99.90;;;;;;5092666;28;20218;-75
2024/01/01 01:52:03;;;;;;;0.30;0.20;;;8.90;99.90;;;;;;5092678;28;20668;-74
2024/01/01 01:54:31;;;;;;;1.95;1.80;;;8.80;99.90;;;;;;5092840;28;20280;-74
2024/01/01 01:56:57;;;;;;;0.30;0.20;;;8.80;99.90;;;;;;5087651;28;20211;-76
2024/01/01 01:59:23;;;;;;;1.10;1.10;;;8.80;99.90;;;;;;5092672;28;20548;-75
2024/01/01 02:01:49;;;;;;;0.30;0.27;;;8.80;99.90;;;;;;5092581;28;20172;-76
2024/01/01 02:04:16;;;;;;;0.30;0.20;;;8.90;99.90;;;;;;5092756;28;20466;-79
2024/01/01 02:06:42;;;;;;;0.30;0.20;;;8.90;99.90;;;;;;5092757;28;20172;-80
2024/01/01 02:09:09;;;;;;;0.30;0.20;;;8.90;99.90;;;;;;5090979;28;20204;-79
2024/01/01 02:11:34;;;;;;;2.22;2.13;;;8.90;99.90;;;;;;5092241;28;20420;-76
2024/01/01 02:14:11;;;;;;;0.30;0.30;;;8.90;99.90;;;;;;5092235;28;20269;-75
2024/01/01 02:16:37;;;;;;;0.30;0.20;;;8.90;99.90;;;;;;5091047;28;20219;-75
2024/01/01 02:19:16;;;;;;;0.30;0.20;;;8.90;99.90;;;;;;5092256;28;20654;-79
2024/01/01 02:21:41;;;;;;;0.30;0.20;;;8.80;99.90;;;;;;5091237;28;20732;-78
2024/01/01 02:24:08;;;;;;;0.30;0.20;;;8.80;99.90;;;;;;5090996;28;20203;-76
2024/01/01 02:26:34;;;;;;;2.67;2.58;;;8.80;99.90;;;;;;5090952;28;20464;-78
2024/01/01 02:29:00;;;;;;;0.30;0.20;;;8.80;99.90;;;;;;5091398;28;20228;-76
2024/01/01 02:31:26;;;;;;;0.30;0.20;;;8.80;99.90;;;;;;5072300;28;20216;-79
2024/01/01 02:33:51;;;;;;;0.30;0.20;;;8.80;99.90;;;;;;5072417;28;20771;-76
2024/01/01 02:36:17;;;;;;;0.30;0.20;;;8.80;99.90;;;;;;5071775;28;20303;-76
2024/01/01 02:38:43;;;;;;;0.30;0.20;;;8.80;99.90;;;;;;5071527;28;20208;-80
2024/01/01 02:41:08;;;;;;;0.30;0.20;;;8.80;99.90;;;;;;5078199;28;20441;-80
2024/01/01 02:43:35;;;;;;;0.30;0.30;;;8.70;99.90;;;;;;5091767;28;20672;-79
2024/01/01 02:46:00;;;;;;;1.70;1.60;;;8.70;99.90;;;;;;5090503;28;20176;-78
2024/01/01 02:48:26;;;;;;;13.90;13.20;;;8.70;99.90;;;;;;5090612;28;20309;-77
2024/01/01 02:50:52;;;;;;;0.30;0.20;;;8.70;99.90;;;;;;5088524;28;20557;-77
2024/01/01 02:53:18;;;;;;;0.30;0.20;;;8.70;99.90;;;;;;5078367;28;20289;-79
2024/01/01 02:55:44;;;;;;;0.88;0.88;;;8.70;99.90;;;;;;5069509;28;20302;-79
2024/01/01 02:58:10;;;;;;;0.30;0.20;;;8.70;99.90;;;;;;5069745;28;20503;-78
2024/01/01 03:00:36;;;;;;;0.30;0.20;;;8.60;99.90;;;;;;5068178;28;20421;-77
2024/01/01 03:03:03;;;;;;;2.50;2.40;;;8.70;99.90;;;;;;5069177;28;20501;-79
2024/01/01 03:05:29;;;;;;;0.30;0.30;;;8.70;99.90;;;;;;5068319;28;20526;-76
2024/01/01 03:07:55;;;;;;;0.30;0.20;;;8.60;99.90;;;;;;5067818;28;20213;-80
2024/01/01 03:10:20;;;;;;;0.30;0.20;;;8.70;99.90;;;;;;5071242;28;20173;-76
2024/01/01 03:12:46;;;;;;;0.30;0.20;;;8.70;99.90;;;;;;5070347;28;20280;-77
2024/01/01 03:15:12;;;;;;;0.30;0.30;;;8.70;99.90;;;;;;5070876;28;20200;-77
2024/01/01 03:17:38;;;;;;;0.30;0.20;;;8.70;99.90;;;;;;5068386;28;20222;-76
2024/01/01 03:20:04;;;;;;;0.30;0.30;;;8.70;99.90;;;;;;5069724;28;20197;-79
2024/01/01 03:22:30;;;;;;;0.32;0.30;;;8.70;99.90;;;;;;5069496;28;20422;-80
2024/01/01 03:24:56;;;;;;;0.65;0.65;;;8.70;99.90;;;;;;5069492;28;20177;-77
2024/01/01 03:27:22;;;;;;;0.30;0.20;;;8.70;99.90;;;;;;5069271;28;20185;-75
2024/01/01 03:29:48;;;;;;;0.30;0.30;;;8.70;99.90;;;;;;5069747;28;20236;-80
2024/01/01 03:32:14;;;;;;;0.30;0.20;;;8.70;99.90;;;;;;5070194;28;20254;-76
2024/01/01 03:34:40;;;;;;;0.40;0.20;;;8.70;99.90;;;;;;5069180;28;20694;-76
2024/01/01 03:37:06;;;;;;;1.17;1.13;;;8.70;99.90;;;;;;5070444;28;20213;-80
2024/01/01 03:39:31;;;;;;;0.30;0.20;;;8.70;99.90;;;;;;5070969;28;20855;-75
2024/01/01 03:41:57;;;;;;;0.30;0.20;;;8.70;99.90;;;;;;5070808;28;20252;-76
2024/01/01 03:44:23;;;;;;;1.77;1.67;;;8.60;99.90;;;;;;5069345;28;20273;-75
2024/01/01 03:46:49;;;;;;;0.37;0.30;;;8.60;99.90;;;;;;5070258;28;20421;-81
2024/01/01 03:49:14;;;;;;;0.70;0.70;;;8.70;99.90;;;;;;5069214;28;20228;-75
2024/01/01 03:51:40;;;;;;;0.30;0.20;;;8.60;99.90;;;;;;5070673;28;20181;-81
2024/01/01 03:54:06;;;;;;;2.80;2.70;;;8.60;99.90;;;;;;5070319;28;21224;-80
2024/01/01 03:56:32;;;;;;;0.50;0.50;;;8.60;99.90;;;;;;5068863;28;20213;-75
2024/01/01 03:58:57;;;;;;;19.90;18.20;;;8.70;99.90;;;;;;5069156;28;20209;-76
2024/01/01 04:01:24;;;;;;;0.30;0.20;;;8.70;99.90;;;;;;5070451;28;20414;-80
2024/01/01 04:03:50;;;;;;;1.73;1.73;;;8.70;99.90;;;;;;5070504;28;20213;-79
2024/01/01 04:06:15;;;;;;;2.57;2.47;;;8.70;99.90;;;;;;5089690;28;20255;-78
2024/01/01 04:08:41;;;;;;;0.30;0.20;;;8.70;99.90;;;;;;5090123;28;20196;-79
2024/01/01 04:11:07;;;;;;;0.30;0.20;;;8.60;99.90;;;;;;5089886;28;20255;-79
2024/01/01 04:13:32;;;;;;;0.30;0.20;;;8.70;99.90;;;;;;5105608;28;20224;-79
2024/01/01 04:15:58;;;;;;;8.77;8.27;;;8.70;99.90;;;;;;5089833;28;20569;-78
2024/01/01 04:18:23;;;;;;;0.30;0.20;;;8.70;99.90;;;;;;5105872;28;20200;-75
2024/01/01 04:20:49;;;;;;;0.30;0.20;;;8.70;99.90;;;;;;5089823;28;20176;-75
2024/01/01 04:23:15;;;;;;;0.30;0.20;;;8.60;99.90;;;;;;5088979;28;20216;-80
2024/01/01 04:25:41;;;;;;;1.33;1.33;;;8.60;99.90;;;;;;5089578;28;20219;-78
2024/01/01 04:28:07;;;;;;;0.30;0.30;;;8.60;99.90;;;;;;5088151;28;20287;-75
2024/01/01 04:30:32;;;;;;;0.30;0.20;;;8.60;99.90;;;;;;5087685;28;20188;-76
2024/01/01 04:32:58;;;;;;;0.30;0.20;;;8.50;99.90;;;;;;5087719;28;20227;-75
2024/01/01 04:35:24;;;;;;;0.30;0.20;;;8.50;99.90;;;;;;5090017;28;20687;-76
2024/01/01 04:37:50;;;;;;;0.82;0.82;;;8.50;99.90;;;;;;5085278;28;20200;-80
2024/01/01 04:40:16;;;;;;;0.30;0.20;;;8.50;99.90;;;;;;5089131;28;20168;-75
2024/01/01 04:42:41;;;;;;;0.30;0.20;;;8.50;99.90;;;;;;5089384;28;20770;-81
2024/01/01 04:45:08;;;;;;;0.30;0.20;;;8.60;99.90;;;;;;5089555;28;20393;-76
2024/01/01 04:47:34;;;;;;;1.67;1.30;;;8.60;99.90;;;;;;5089468;28;20689;-76
2024/01/01 04:50:00;;;;;;;0.30;0.20;;;8.70;99.90;;;;;;5088222;28;20259;-79
2024/01/01 04:52:26;;;;;;;0.30;0.20;;;8.60;99.90;;;;;;5088017;28;20184;-80
2024/01/01 04:54:56;;;;;;;4.70;4.30;;;8.60;99.90;;;;;;5089516;28;20165;-76
2024/01/01 04:57:22;;;;;;;0.30;0.20;;;8.60;99.90;;;;;;5087771;28;20267;-79
2024/01/01 04:59:47;;;;;;;0.30;0.20;;;8.60;99.90;;;;;;5075073;28;20291;-79
2024/01/01 05:02:15;;;;;;;0.30;0.20;;;8.60;99.90;;;;;;5067726;28;20185;-77
2024/01/01 05:04:40;;;;;;;0.30;0.20;;;8.50;99.90;;;;;;5067679;28;20247;-80
2024/01/01 05:07:06;;;;;;;0.30;0.20;;;8.50;99.90;;;;;;5069522;28;20185;-80
2024/01/01 05:09:32;;;;;;;0.30;0.20;;;8.50;99.90;;;;;;5067531;28;20281;-76
2024/01/01 05:11:58;;;;;;;0.30;0.20;;;8.60;99.90;;;;;;5066410;28;20686;-76
2024/01/01 05:14:24;;;;;;;0.30;0.20;;;8.60;99.90;;;;;;5067860;28;20432;-79
2024/01/01 05:16:50;;;;;;;0.30;0.20;;;8.60;99.90;;;;;;5067742;28;20228;-79
2024/01/01 05:19:16;;;;;;;0.30;0.20;;;8.60;99.90;;;;;;5067979;28;20470;-76
2024/01/01 05:21:42;;;;;;;0.30;0.20;;;8.60;99.90;;;;;;5066735;28;20260;-76
2024/01/01 05:24:08;;;;;;;1.73;1.70;;;8.60;99.90;;;;;;5066402;28;20312;-79
2024/01/01 05:26:33;;;;;;;5.47;3.25;;;8.60;99.90;;;;;;5069117;28;20172;-76
2024/01/01 05:28:59;;;;;;;0.30;0.30;;;8.60;99.90;;;;;;5068758;28;20200;-79
2024/01/01 05:31:24;;;;;;;0.30;0.30;;;8.60;99.90;;;;;;5069269;28;20169;-76
2024/01/01 05:33:50;;;;;;;3.90;3.70;;;8.70;99.90;;;;;;5069530;28;20247;-79
2024/01/01 05:36:16;;;;;;;1.07;1.07;;;8.60;99.90;;;;;;5068806;28;20223;-77
2024/01/01 05:38:41;;;;;;;0.97;0.97;;;8.60;99.90;;;;;;5067523;28;20228;-79
2024/01/01 05:41:11;;;;;;;0.30;0.20;;;8.60;99.90;;;;;;5069355;28;20173;-79
2024/01/01 05:43:36;;;;;;;2.90;2.67;;;8.60;99.90;;;;;;5069232;28;20193;-79
2024/01/01 05:46:02;;;;;;;0.30;0.20;;;8.60;99.90;;;;;;5069337;28;20240;-76
2024/01/01 05:48:28;;;;;;;0.30;0.20;;;8.60;99.90;;;;;;5069355;28;20270;-76
2024/01/01 05:50:53;;;;;;;0.30;0.20;;;8.60;99.90;;;;;;5067497;28;20323;-79
2024/01/01 05:53:19;;;;;;;0.30;0.20;;;8.50;99.90;;;;;;5068605;28;20689;-79
2024/01/01 05:55:45;;;;;;;0.30;0.20;;;8.60;99.90;;;;;;5067029;28;20456;-76
2024/01/01 05:58:11;;;;;;;0.30;0.20;;;8.60;99.90;;;;;;5068940;28;20432;-79
2024/01/01 06:00:38;;;;;;;0.30;0.20;;;8.50;99.90;;;;;;5069039;28;20392;-76
2024/01/01 06:03:04;;;;;;;4.57;4.13;;;8.50;99.90;;;;;;5068741;28;20658;-79
2024/01/01 06:05:35;;;;;;;0.65;0.65;;;8.60;99.90;;;;;;5069370;28;20236;-76
2024/01/01 06:08:04;;;;;;;0.30;0.20;;;8.60;99.90;;;;;;5067426;28;20204;-76
2024/01/01 06:10:31;;;;;;;0.50;0.50;;;8.50;99.90;;;;;;5069045;28;20177;-79
2024/01/01 06:12:57;;;;;;;0.30;0.20;;;8.50;99.90;;;;;;5067337;28;20284;-79
2024/01/01 06:15:24;;;;;;;0.30;0.20;;;8.50;99.90;;;;;;5069022;28;20324;-76
2024/01/01 06:17:50;;;;;;;0.30;0.20;;;8.60;99.90;;;;;;5068622;28;20205;-76
2024/01/01 06:20:16;;;;;;;0.30;0.20;;;8.60;99.90;;;;;;5067496;28;20177;-79
2024/01/01 06:22:43;;;;;;;0.30;0.20;;;8.60;99.90;;;;;;5068558;28;20173;-76
2024/01/01 06:25:10;;;;;;;0.30;0.20;;;8.60;99.90;;;;;;5070402;28;20166;-76
2024/01/01 06:27:38;;;;;;;4.25;2.95;;;8.60;99.90;;;;;;5071155;28;20189;-76
2024/01/01 06:30:05;;;;;;;0.30;0.20;;;8.60;99.90;;;;;;5071613;28;20260;-76
2024/01/01 06:32:32;;;;;;;0.30;0.20;;;8.50;99.90;;;;;;5070821;28;20275;-79
2024/01/01 06:34:58;;;;;;;0.30;0.20;;;8.50;99.90;;;;;;5071005;28;20231;-79
2024/01/01 06:37:23;;;;;;;0.30;0.20;;;8.50;99.90;;;;;;5071935;28;20173;-76
2024/01/01 06:39:49;;;;;;;0.30;0.30;;;8.60;99.90;;;;;;5070569;28;20650;-76
2024/01/01 06:42:16;;;;;;;1.07;1.07;;;8.60;99.90;;;;;;5072740;28;20764;-79
2024/01/01 06:44:43;;;;;;;0.30;0.20;;;8.60;99.90;;;;;;5072135;28;20731;-76
2024/01/01 06:47:08;;;;;;;0.30;0.20;;;8.60;99.90;;;;;;5072604;28;20262;-79
2024/01/01 06:49:34;;;;;;;0.30;0.20;;;8.70;99.90;;;;;;5072196;28;20267;-76
2024/01/01 06:51:59;;;;;;;0.30;0.20;;;8.60;99.90;;;;;;5072115;28;20170;-76
2024/01/01 06:54:25;;;;;;;0.30;0.20;;;8.70;99.90;;;;;;5072432;28;20211;-79
2024/01/01 06:56:51;;;;;;;0.30;0.20;;;8.70;99.90;;;;;;5071957;28;20213;-79
2024/01/01 06:59:17;;;;;;;0.30;0.20;;;8.70;99.90;;;;;;5072084;28;20193;-79
2024/01/01 07:01:43;;;;;;;0.30;0.20;;;8.70;99.90;;;;;;5070498;28;20177;-77
2024/01/01 07:04:10;;;;;;;3.90;3.70;;;8.80;99.90;;;;;;5071408;28;20228;-76
2024/01/01 07:06:37;;;;;;;0.30;0.20;;;8.80;99.90;;;;;;5071770;28;20649;-76
2024/01/01 07:09:03;;;;;;;0.85;0.85;;;8.80;99.90;;;;;;5071389;28;20435;-79
2024/01/01 07:11:28;;;;;;;3.33;1.53;;;8.80;99.90;;;;;;5071859;28;20243;-76
2024/01/01 07:13:54;;;;;;;0.30;0.20;;;8.80;99.90;;;;;;5070240;28;20212;-79
2024/01/01 07:16:20;;;;;;;0.30;0.20;;;8.90;99.90;;;;;;5071828;28;20580;-79
2024/01/01 07:18:46;;;;;;;0.40;0.20;;;8.90;99.90;;;;;;5070020;28;20798;-79
2024/01/01 07:21:12;;;;;;;0.30;0.30;;;8.80;99.90;;;;;;5071565;28;20200;-78
2024/01/01 07:23:37;;;;;;;1.33;1.23;;;8.80;99.90;;;;;;5071552;28;20512;-76
2024/01/01 07:26:04;;;;;;;0.30;0.30;;;8.70;99.90;;;;;;5070094;28;20756;-79
2024/01/01 07:28:30;;;;;;;0.30;0.20;;;8.70;99.90;;;;;;5069967;28;20208;-76
2024/01/01 07:30:57;;;;;;;0.30;0.30;;;8.80;99.90;;;;;;5070419;28;20181;-79
2024/01/01 07:33:23;;;;;;;0.30;0.20;;;8.80;99.90;;;;;;5071409;28;20429;-79
2024/01/01 07:35:48;;;;;;;0.30;0.20;;;8.90;99.90;;;;;;5070706;28;20244;-76
2024/01/01 07:38:14;;;;;;;0.30;0.20;;;8.80;99.90;;;;;;5071497;28;20189;-78
2024/01/01 07:40:39;;;;;;;0.30;0.20;;;8.80;99.90;;;;;;5070818;28;20177;-76
2024/01/01 07:43:05;;;;;;;0.30;0.20;;;8.90;99.90;;;;;;5070279;28;20189;-76
2024/01/01 07:45:31;;;;;;;2.53;2.30;;;8.90;99.90;;;;;;5071170;28;20205;-78
2024/01/01 07:47:57;;;;;;;0.30;0.20;;;8.90;99.90;;;;;;5070578;28;20185;-76
2024/01/01 07:50:23;;;;;;;0.30;0.20;;;8.80;99.90;;;;;;5069843;28;20165;-76
2024/01/01 07:52:48;;;;;;;0.30;0.20;;;8.80;99.90;;;;;;5070528;28;20201;-76
2024/01/01 07:55:14;;;;;;;1.83;1.80;;;8.80;99.90;;;;;;5070687;28;20537;-76
2024/01/01 07:57:40;;;;;;;0.30;0.20;;;8.80;99.90;;;;;;5070665;28;20209;-78
2024/01/01 08:00:09;;;;;;;0.30;0.20;;;8.80;99.90;;;;;;5070724;28;20680;-79
2024/01/01 08:02:35;;;;;;;0.75;0.45;;;8.80;99.90;;;;;;5069026;28;20666;-79
2024/01/01 08:05:01;;;;;;;0.37;0.33;;;8.80;99.90;;;;;;5069452;28;20242;-79
2024/01/01 08:07:26;;;;;;;0.30;0.20;;;8.80;99.90;;;;;;5070890;28;20187;-76
2024/01/01 08:09:53;;;;;;;0.30;0.20;;;8.80;99.90;;;;;;5070472;28;20429;-76
2024/01/01 08:12:18;;;;;;;0.30;0.30;;;8.90;99.90;;;;;;5070446;28;20177;-76
2024/01/01 08:14:44;;;;;;;0.50;0.50;;;8.90;99.90;;;;;;5070332;28;20193;-79
2024/01/01 08:17:11;;;;;;;3.72;3.50;;;8.80;99.90;;;;;;5070571;28;20213;-79
2024/01/01 08:19:36;;;;;;;1.27;1.27;;;8.90;99.90;;;;;;5069297;28;20295;-79
2024/01/01 08:22:02;;;;;;;0.47;0.40;;;9.00;99.90;;;;;;5069043;28;20264;-79
2024/01/01 08:24:28;;;;;;;0.57;0.57;;;9.10;99.90;;;;;;5070446;28;20693;-76
2024/01/01 08:26:54;;;;;;;0.30;0.20;;;9.20;99.90;;;;;;5069979;28;20208;-76
2024/01/01 08:29:19;;;;;;;0.30;0.20;;;9.30;99.90;;;;;;5070269;28;20272;-76
2024/01/01 08:31:45;;;;;;;0.50;0.50;;;9.50;99.90;;;;;;5069527;28;20447;-79
2024/01/01 08:34:10;;;;;;;0.30;0.30;;;9.70;99.90;;;;;;5068738;28;20201;-76
2024/01/01 08:36:36;;;;;;;0.40;0.40;;;9.70;99.90;;;;;;5068722;28;20219;-76
2024/01/01 08:39:03;;;;;;;0.30;0.20;;;9.70;99.90;;;;;;5070108;28;20197;-79
2024/01/01 08:41:29;;;;;;;0.32;0.20;;;9.70;99.90;;;;;;5070192;28;20634;-78
2024/01/01 08:43:57;;;;;;;0.30;0.20;;;9.70;99.90;;;;;;5068699;28;20201;-76
2024/01/01 08:46:24;;;;;;;0.30;0.20;;;9.70;99.90;;;;;;5068337;28;20267;-78
2024/01/01 08:48:53;;;;;;;0.30;0.20;;;9.80;99.90;;;;;;5069475;28;20235;-79
2024/01/01 08:51:19;;;;;;;0.30;0.30;;;9.80;99.90;;;;;;5069933;28;20622;-79
2024/01/01 08:53:45;;;;;;;0.50;0.50;;;9.90;99.90;;;;;;5069799;28;20319;-78
2024/01/01 08:56:10;;;;;;;0.30;0.30;;;9.90;99.90;;;;;;5069865;28;20220;-79
2024/01/01 08:58:36;;;;;;;0.57;0.57;;;9.90;99.90;;;;;;5070298;28;20689;-78
2024/01/01 09:01:02;;;;;;;0.30;0.20;;;9.80;99.90;;;;;;5069350;28;20788;-79
2024/01/01 09:03:29;;;;;;;0.30;0.20;;;9.70;99.90;;;;;;5069820;28;20189;-76
2024/01/01 09:05:57;;;;;;;0.30;0.20;;;9.60;99.90;;;;;;5069778;28;20185;-79
2024/01/01 09:08:25;;;;;;;0.30;0.20;;;9.40;99.90;;;;;;5068617;28;20369;-76
2024/01/01 09:10:50;;;;;;;0.30;0.20;;;9.30;99.90;;;;;;5068139;28;20176;-79
2024/01/01 09:13:16;;;;;;;0.30;0.20;;;9.20;99.90;;;;;;5069708;28;20433;-76
2024/01/01 09:15:42;;;;;;;0.30;0.20;;;9.10;99.90;;;;;;5069561;28;20205;-76
2024/01/01 09:18:08;;;;;;;0.30;0.20;;;9.00;99.90;;;;;;5069724;28;20272;-76
2024/01/01 09:20:34;;;;;;;0.30;0.20;;;8.90;99.90;;;;;;5069633;28;20428;-76
2024/01/01 09:23:00;;;;;;;0.30;0.20;;;8.80;99.90;;;;;;5069370;28;20197;-79
2024/01/01 09:25:25;;;;;;;0.30;0.30;;;8.80;99.90;;;;;;5069585;28;20223;-76
2024/01/01 09:27:53;;;;;;;0.30;0.20;;;8.70;99.90;;;;;;5069351;28;20322;-78
2024/01/01 09:30:18;;;;;;;0.30;0.20;;;8.70;99.90;;;;;;5069719;28;20189;-78
2024/01/01 09:32:44;;;;;;;0.30;0.20;;;8.60;99.90;;;;;;5068593;28;20772;-78
2024/01/01 09:35:10;;;;;;;0.30;0.20;;;8.60;99.90;;;;;;5069341;28;20168;-79
2024/01/01 09:37:38;;;;;;;0.30;0.20;;;8.60;99.90;;;;;;5067999;28;20199;-78
2024/01/01 09:40:05;;;;;;;0.30;0.20;;;8.50;99.90;;;;;;5068057;28;20181;-79
2024/01/01 09:42:31;;;;;;;0.30;0.20;;;8.40;99.90;;;;;;5068974;28;20246;-76
2024/01/01 09:44:57;;;;;;;0.30;0.20;;;8.40;99.90;;;;;;5068634;28;20330;-76
2024/01/01 09:47:23;;;;;;;0.30;0.20;;;8.30;99.90;;;;;;5068412;28;20593;-76
2024/01/01 09:49:48;;;;;;;0.30;0.20;;;8.30;99.90;;;;;;5067737;28;20856;-79
2024/01/01 09:52:14;;;;;;;0.30;0.20;;;8.20;99.90;;;;;;5068023;28;20187;-76
2024/01/01 09:54:43;;;;;;;0.30;0.20;;;8.20;99.90;;;;;;5067944;28;20686;-78
2024/01/01 09:57:09;;;;;;;0.30;0.20;;;8.20;99.90;;;;;;5069271;28;20628;-78
2024/01/01 09:59:36;;;;;;;0.30;0.20;;;8.20;99.90;;;;;;5070108;28;20229;-78
2024/01/01 10:02:04;;;;;;;0.30;0.20;;;8.10;99.90;;;;;;5071565;28;20693;-76
2024/01/01 10:04:29;;;;;;;0.30;0.20;;;8.10;99.90;;;;;;5071544;28;20665;-76
2024/01/01 10:06:55;;;;;;;0.30;0.20;;;8.10;99.90;;;;;;5072676;28;20368;-78
2024/01/01 10:09:21;;;;;;;0.30;0.20;;;8.00;99.90;;;;;;5073111;28;20192;-77
2024/01/01 10:11:46;;;;;;;0.30;0.20;;;8.10;99.90;;;;;;5071498;28;20181;-78
2024/01/01 10:14:12;;;;;;;0.30;0.20;;;8.10;99.90;;;;;;5071622;28;20243;-78
2024/01/01 10:16:39;;;;;;;0.30;0.20;;;8.10;99.90;;;;;;5072469;28;20208;-78
2024/01/01 10:19:05;;;;;;;0.30;0.20;;;8.10;99.90;;;;;;5072642;28;20200;-78
2024/01/01 10:21:34;;;;;;;0.30;0.20;;;8.10;99.90;;;;;;5072935;28;20448;-79
2024/01/01 10:24:18;;;;;;;0.30;0.20;;;8.10;99.90;;;;;;5071182;28;20631;-76
2024/01/01 10:26:45;;;;;;;0.30;0.20;;;8.20;99.90;;;;;;5072788;28;20176;-76
2024/01/01 10:29:14;;;;;;;0.30;0.30;;;8.10;99.90;;;;;;5071408;28;20366;-78
2024/01/01 10:31:44;;;;;;;0.30;0.20;;;8.20;99.90;;;;;;5071718;28;20205;-78
2024/01/01 10:34:14;;;;;;;0.30;0.20;;;8.20;99.90;;;;;;5071089;28;20224;-76
2024/01/01 10:36:41;;;;;;;0.30;0.20;;;8.30;99.90;;;;;;5072385;28;20236;-79
2024/01/01 10:39:12;;;;;;;0.30;0.20;;;8.30;99.90;;;;;;5072196;28;20201;-79
2024/01/01 10:41:39;;;;;;;0.30;0.20;;;8.40;99.90;;;;;;5072873;28;20165;-79
2024/01/01 10:44:08;;;;;;;0.30;0.20;;;8.40;99.90;;;;;;5071320;28;20205;-76
2024/01/01 10:46:38;;;;;;;0.30;0.20;;;8.50;99.90;;;;;;5072084;28;20169;-78
2024/01/01 10:49:08;;;;;;;0.70;0.70;;;8.50;99.90;;;;;;5072162;28;20205;-79
2024/01/01 10:51:42;;;;;;;0.30;0.20;;;8.50;99.90;;;;;;5072059;28;20176;-76
2024/01/01 10:54:54;;;;;;;2.47;2.28;;;8.60;99.90;;;;;;5070743;28;20368;-76
2024/01/01 10:57:35;;;;;;;0.30;0.20;;;8.70;99.90;;;;;;5072307;28;20197;-76
2024/01/01 11:00:14;;;;;;;0.30;0.20;;;8.70;99.90;;;;;;5072075;28;20222;-78
2024/01/01 11:02:42;;;;;;;0.30;0.30;;;8.70;99.90;;;;;;5070473;28;20193;-79
2024/01/01 11:05:09;;;;;;;0.30;0.20;;;8.70;99.90;;;;;;5070326;28;20228;-76
2024/01/01 11:07:54;;;;;;;0.30;0.20;;;8.70;99.90;;;;;;5071942;28;20642;-78
2024/01/01 11:10:40;;;;;;;0.30;0.20;;;8.70;99.90;;;;;;5071393;28;20703;-78
2024/01/01 11:13:10;;;;;;;0.30;0.20;;;8.70;99.90;;;;;;5070266;28;20761;-76
2024/01/01 11:15:41;;;;;;;0.30;0.20;;;8.80;99.90;;;;;;5071840;28;20201;-76
2024/01/01 11:18:17;;;;;;;0.30;0.20;;;8.80;99.90;;;;;;5070101;28;20205;-79
2024/01/01 11:20:53;;;;;;;0.30;0.20;;;8.80;99.90;;;;;;5071521;28;20173;-76
2024/01/01 11:23:40;;;;;;;0.30;0.20;;;8.90;99.90;;;;;;5070290;28;20212;-76
2024/01/01 11:26:25;;;;;;;0.30;0.20;;;8.90;99.90;;;;;;5071605;28;20368;-77
2024/01/01 11:28:52;;;;;;;0.30;0.20;;;9.00;99.90;;;;;;5069958;28;20663;-79
2024/01/01 11:31:17;;;;;;;0.30;0.20;;;9.10;99.90;;;;;;5069941;28;20534;-78
2024/01/01 11:33:43;;;;;;;0.30;0.20;;;9.10;99.90;;;;;;5069304;28;20204;-76
2024/01/01 11:36:09;;;;;;;0.30;0.20;;;9.20;99.90;;;;;;5069782;28;21008;-78
2024/01/01 11:38:35;;;;;;;0.30;0.20;;;9.20;99.90;;;;;;5071570;28;20246;-76
2024/01/01 11:41:01;;;;;;;0.30;0.20;;;9.20;99.90;;;;;;5071175;28;20416;-76
2024/01/01 11:43:27;;;;;;;0.30;0.20;;;9.20;99.90;;;;;;5069762;28;20201;-76
2024/01/01 11:45:56;;;;;;;0.30;0.20;;;9.30;99.90;;;;;;5070217;28;20177;-78
2024/01/01 11:48:22;;;;;;;0.30;0.20;;;9.40;99.90;;;;;;5071189;28;20271;-76
2024/01/01 11:50:49;;;;;;;0.30;0.20;;;9.50;99.90;;;;;;5069703;28;20634;-79
2024/01/01 11:53:18;;;;;;;0.30;0.22;;;9.50;99.90;;;;;;5069506;28;20578;-76
2024/01/01 11:55:43;;;;;;;0.30;0.20;;;9.60;99.90;;;;;;5070572;28;20201;-76
2024/01/01 11:58:10;;;;;;;0.30;0.20;;;9.60;99.90;;;;;;5069820;28;20193;-79
2024/01/01 12:00:36;;;;;;;0.30;0.20;;;9.70;99.90;;;;;;5069549;28;20173;-78
2024/01/01 12:03:06;;;;;;;0.30;0.20;;;9.80;99.90;;;;;;5070513;28;20669;-79
2024/01/01 12:05:32;;;;;;;0.30;0.20;;;9.90;99.90;;;;;;5069584;28;20470;-76
2024/01/01 12:07:59;;;;;;;0.30;0.20;;;10.00;99.90;;;;;;5069359;28;20201;-79
2024/01/01 12:10:26;;;;;;;0.30;0.20;;;10.00;99.90;;;;;;5070878;28;20197;-79
2024/01/01 12:12:59;;;;;;;0.30;0.20;;;10.10;99.90;;;;;;5068721;28;20192;-77
2024/01/01 12:15:31;;;;;;;0.30;0.20;;;10.10;99.90;;;;;;5068960;28;20219;-79
2024/01/01 12:17:56;;;;;;;0.30;0.20;;;10.20;99.90;;;;;;5068494;28;20538;-77
2024/01/01 12:20:23;;;;;;;0.30;0.20;;;10.20;99.90;;;;;;5067307;28;20234;-79
2024/01/01 12:22:49;;;;;;;0.30;0.20;;;10.30;99.90;;;;;;5067259;28;20553;-79
2024/01/01 12:25:16;;;;;;;0.30;0.20;;;10.30;99.90;;;;;;5067174;28;20173;-76
2024/01/01 12:27:43;;;;;;;0.30;0.20;;;10.40;99.90;;;;;;5068434;28;20441;-79
2024/01/01 12:30:23;;;;;;;0.30;0.20;;;10.40;99.90;;;;;;5066696;28;20182;-79
2024/01/01 12:32:49;;;;;;;0.30;0.20;;;10.40;99.90;;;;;;5067380;28;20238;-76
2024/01/01 12:35:15;;;;;;;0.30;0.20;;;10.30;99.90;;;;;;5066874;28;20169;-76
2024/01/01 12:37:40;;;;;;;0.30;0.20;;;10.30;99.90;;;;;;5068162;28;20185;-78
2024/01/01 12:40:07;;;;;;;0.30;0.20;;;10.30;99.90;;;;;;5066811;28;20208;-79
2024/01/01 12:42:33;;;;;;;0.30;0.20;;;10.40;99.90;;;;;;5066544;28;20192;-79
2024/01/01 12:44:59;;;;;;;0.30;0.20;;;10.40;99.90;;;;;;5067220;28;20647;-77
2024/01/01 12:47:24;;;;;;;0.30;0.20;;;10.40;99.90;;;;;;5067457;28;20191;-76
2024/01/01 12:49:50;;;;;;;0.30;0.20;;;10.40;99.90;;;;;;5068040;28;20223;-79
2024/01/01 12:52:15;;;;;;;0.30;0.20;;;10.50;99.90;;;;;;5066806;28;20250;-77